Weather reports worldwide

Advertisment
Carrion de los Condes, Spain (8068): temperature & dewpoint: 13.03.2019 10:00:00 - 19.03.2019 10:00:00 (CET)Carrion de los Condes, Spain (8068): wind speed & gusts: 13.03.2019 10:00:00 - 19.03.2019 10:00:00 (CET)Carrion de los Condes, Spain (8068): wind direction: 13.03.2019 10:00:00 - 19.03.2019 10:00:00 (CET)Carrion de los Condes, Spain (8068): visibility: 13.03.2019 10:00:00 - 19.03.2019 10:00:00 (CET)Carrion de los Condes, Spain (8068): sunshine duration: 13.03.2019 10:00:00 - 19.03.2019 10:00:00 (CET)Carrion de los Condes, Spain (8068): precipitation: 13.03.2019 10:00:00 - 19.03.2019 10:00:00 (CET)
Date & Time tt [°C] td [°C] ff [km/h] ff [kn] fx [km/h] fx [kn] dd vv [km] sd [min] rr [mm]
19.03.2019 10:00:00 - - - - - - - - - -
19.03.2019 09:00:00 4,2 1,1 4 2 15 8 WNW 20 32 0,0
19.03.2019 08:00:00 0,9 0,6 1 1 16 9 NNW 20 0 0,0
19.03.2019 07:00:00 -0,2 -0,7 3 1 6 3 ESE 20 0 -
19.03.2019 06:00:00 0,0 -0,7 1 1 5 3 E 18 0 0,0
19.03.2019 05:00:00 0,8 -1,2 1 1 4 2 N 20 0 0,0
19.03.2019 04:00:00 1,8 -0,5 1 1 3 2 N 20 0 0,0
19.03.2019 03:00:00 3,1 0,4 0 0 4 2 N 20 0 0,0
19.03.2019 02:00:00 3,3 0,2 1 1 13 7 NNW 20 0 0,0
19.03.2019 01:00:00 3,3 -0,3 2 1 4 2 WSW 20 0 -
19.03.2019 00:00:00 3,1 -0,3 1 1 7 4 NW 20 0 0,0
18.03.2019 23:00:00 2,9 -0,5 3 1 7 4 NNE 20 0 0,0
18.03.2019 22:00:00 3,2 -1,0 5 3 18 10 ESE 20 0 0,0
18.03.2019 21:00:00 4,6 -0,7 9 5 16 8 E 20 0 0,0
18.03.2019 20:00:00 6,0 -0,5 8 4 24 13 ENE 20 0 0,0
18.03.2019 19:00:00 8,2 -0,5 13 7 29 16 E 20 0 -
18.03.2019 18:00:00 10,4 -1,4 11 6 24 13 E 20 33 0,0
18.03.2019 17:00:00 11,2 -2,2 5 3 21 12 ENE 20 44 0,0
18.03.2019 16:00:00 11,4 -1,7 8 5 26 14 E 20 57 0,0
18.03.2019 15:00:00 10,3 -2,0 5 3 23 12 NNE 20 41 0,0
18.03.2019 14:00:00 9,9 -3,0 10 6 26 14 E 20 47 0,0
18.03.2019 13:00:00 10,2 -1,2 7 4 23 12 ENE 20 48 -
18.03.2019 12:00:00 8,7 -1,4 8 4 16 9 E 20 56 0,0
18.03.2019 11:00:00 6,8 -0,7 5 3 14 7 NE 20 60 0,0
18.03.2019 10:00:00 5,1 -0,7 1 1 19 10 N 20 60 0,0
18.03.2019 09:00:00 1,1 -1,4 2 1 8 5 SSW 20 37 0,0
18.03.2019 08:00:00 -3,0 -3,6 2 1 12 6 W 20 0 0,0
18.03.2019 07:00:00 -2,9 -3,9 4 2 7 4 NW 20 0 -
18.03.2019 06:00:00 -2,8 -4,8 1 1 8 4 NNW 20 0 0,0
18.03.2019 05:00:00 -2,3 -4,5 2 1 16 9 N 20 0 0,0
18.03.2019 04:00:00 -1,7 -4,5 3 2 10 5 NNE 20 0 0,0
18.03.2019 03:00:00 -0,9 -3,9 5 3 16 9 NE 20 0 0,0
18.03.2019 02:00:00 0,3 -3,3 3 2 16 8 ENE 20 0 0,0
18.03.2019 01:00:00 1,2 -2,0 8 4 20 11 NE 20 0 -
18.03.2019 00:00:00 2,1 -1,7 7 4 22 12 ENE 20 0 0,0
17.03.2019 23:00:00 3,2 -1,4 7 4 24 13 ENE 20 0 0,0
17.03.2019 22:00:00 3,6 -1,2 9 5 30 16 ENE 20 0 0,0
17.03.2019 21:00:00 4,1 -1,0 12 7 31 17 ENE 20 0 0,0
17.03.2019 20:00:00 5,3 0,0 9 5 26 14 ENE 20 0 0,0
17.03.2019 19:00:00 7,5 0,9 12 6 29 16 ENE 20 2 -
17.03.2019 18:00:00 10,0 1,7 11 6 30 16 ENE 20 60 0,0
17.03.2019 17:00:00 10,2 1,9 11 6 31 17 ENE 20 17 0,0
17.03.2019 16:00:00 10,0 2,1 16 8 37 20 NE 20 14 0,0
17.03.2019 15:00:00 12,3 3,2 8 4 18 10 E 20 1 0,0
17.03.2019 14:00:00 12,6 2,5 10 5 24 13 E 20 49 0,0
17.03.2019 13:00:00 12,5 2,1 10 6 28 15 ESE 20 60 -
17.03.2019 12:00:00 11,2 2,3 11 6 26 14 E 20 60 0,0
17.03.2019 11:00:00 9,4 0,9 8 4 18 10 ENE 20 60 0,0
17.03.2019 10:00:00 6,6 -0,3 4 2 10 6 N 15 51 0,0
17.03.2019 09:00:00 4,0 1,1 3 2 11 6 NNW 20 15 0,0
17.03.2019 08:00:00 1,9 -0,3 3 1 8 4 W 20 0 0,0
17.03.2019 07:00:00 1,3 -1,2 3 2 8 5 WNW 20 0 -
17.03.2019 06:00:00 1,0 -1,7 0 0 8 5 N 20 0 0,0
17.03.2019 05:00:00 2,0 -1,2 2 1 9 5 WSW 20 0 0,0
17.03.2019 04:00:00 3,5 -1,0 2 1 9 5 N 20 0 0,0
17.03.2019 03:00:00 5,2 -0,7 3 1 19 10 WSW 20 0 0,0
17.03.2019 02:00:00 7,3 -0,7 11 6 19 11 SW 20 0 0,0
17.03.2019 01:00:00 6,9 -1,2 7 4 16 9 SW 20 0 -
17.03.2019 00:00:00 8,2 -1,7 4 2 14 8 WSW 20 0 0,0
16.03.2019 23:00:00 9,2 -0,3 2 1 16 8 SSW 20 0 0,0
16.03.2019 22:00:00 10,1 0,9 6 3 21 11 WSW 20 0 0,0
16.03.2019 21:00:00 11,6 0,4 4 2 22 12 W 20 0 0,0
16.03.2019 20:00:00 13,6 0,2 6 3 21 11 WSW 20 0 0,0
16.03.2019 19:00:00 17,2 0,0 10 5 27 15 SW 20 0 -
16.03.2019 18:00:00 19,8 -0,3 10 5 35 19 WSW 20 55 0,0
16.03.2019 17:00:00 21,0 -1,0 19 11 44 24 SW 20 60 0,0
16.03.2019 16:00:00 21,6 -1,7 13 7 34 19 SW 20 60 0,0
16.03.2019 15:00:00 20,7 -0,7 11 6 24 13 SW 20 60 0,0
16.03.2019 14:00:00 19,4 -1,2 9 5 22 12 SW 20 60 0,0
16.03.2019 13:00:00 17,5 -0,3 8 4 20 11 SW 20 60 -
16.03.2019 12:00:00 14,5 1,1 5 3 13 7 SW 20 60 0,0
16.03.2019 11:00:00 11,1 2,9 5 3 11 6 SSW 20 60 0,0
16.03.2019 10:00:00 6,6 3,6 1 1 5 3 ESE 20 60 0,0
16.03.2019 09:00:00 1,4 1,3 1 1 4 2 WNW 20 38 0,0
16.03.2019 08:00:00 -1,3 -1,4 0 0 4 2 N 16 0 0,0
16.03.2019 07:00:00 -1,5 -1,7 1 1 3 2 ENE 12 0 -
16.03.2019 06:00:00 -1,0 -1,4 2 1 4 2 N 10 0 0,0
16.03.2019 05:00:00 -0,6 -1,0 3 1 4 2 WNW 9 0 0,0
16.03.2019 04:00:00 -0,3 -1,0 2 1 4 2 N 12 0 0,0
16.03.2019 03:00:00 0,9 0,2 2 1 5 3 WSW 17 0 0,0
16.03.2019 02:00:00 1,6 0,4 2 1 14 7 N 14 0 0,0
16.03.2019 01:00:00 2,1 -0,3 1 1 5 3 N 18 0 -
16.03.2019 00:00:00 3,3 0,9 3 2 5 3 E 20 0 0,0
15.03.2019 23:00:00 4,7 1,5 5 3 12 6 WNW 20 0 0,0
15.03.2019 22:00:00 5,9 2,1 1 1 13 7 N 20 0 0,0
15.03.2019 21:00:00 8,3 2,7 1 1 4 2 NNW 20 0 0,0
15.03.2019 20:00:00 11,6 3,6 0 0 16 8 N 20 0 0,0
15.03.2019 19:00:00 15,6 0,9 3 1 8 5 SSW 20 0 -
15.03.2019 18:00:00 18,6 0,2 5 3 12 7 SSW 20 56 0,0
15.03.2019 17:00:00 19,0 0,6 5 3 17 9 S 20 60 0,0
15.03.2019 16:00:00 18,3 0,9 5 3 18 10 SSW 20 60 0,0
15.03.2019 15:00:00 16,2 3,6 5 3 15 8 SSW 20 60 0,0
15.03.2019 14:00:00 13,7 3,2 4 2 17 9 WSW 20 60 0,0
15.03.2019 13:00:00 10,8 3,6 5 3 12 7 NNW 20 60 -
15.03.2019 12:00:00 8,4 3,9 4 2 11 6 SSW 20 60 0,0
15.03.2019 11:00:00 5,0 4,8 4 2 11 6 ESE 14 25 0,0
15.03.2019 10:00:00 2,5 2,5 3 2 17 9 NNE 0,5 2 0,0
15.03.2019 09:00:00 1,0 1,1 4 2 18 10 NNE 0,3 0 0,0
15.03.2019 08:00:00 0,9 0,9 5 3 17 9 NNW 0,1 0 0,0
15.03.2019 07:00:00 0,6 0,4 5 3 9 5 N 0,2 0 -
15.03.2019 06:00:00 -0,6 -0,7 2 1 5 3 NW 0,2 0 0,0
15.03.2019 05:00:00 -0,4 -0,7 3 1 11 6 NNE - 0 0,0
15.03.2019 04:00:00 0,0 -0,5 3 2 11 6 NE 10 0 0,0
15.03.2019 03:00:00 0,2 -0,3 3 1 9 5 NE 10 0 0,0
15.03.2019 02:00:00 1,0 0,2 1 1 9 5 NNE 11 0 0,0
15.03.2019 01:00:00 2,0 0,0 1 1 12 6 N 12 0 -
15.03.2019 00:00:00 3,0 0,9 7 4 20 11 ENE 14 0 0,0
14.03.2019 23:00:00 4,0 1,3 9 5 23 12 ENE 20 0 0,0
14.03.2019 22:00:00 4,8 0,6 5 3 16 9 ENE 14 0 0,0
14.03.2019 21:00:00 6,6 0,4 3 1 8 4 NNE 20 0 0,0
14.03.2019 20:00:00 9,4 0,0 6 3 13 7 SW 20 0 0,0
14.03.2019 19:00:00 12,6 -0,7 6 3 22 12 SSW 20 0 -
14.03.2019 18:00:00 15,0 -2,5 8 4 21 12 SW 20 58 0,0
14.03.2019 17:00:00 15,8 -2,7 7 4 23 12 WSW 20 60 0,0
14.03.2019 16:00:00 15,3 -2,2 7 4 25 13 WSW 20 60 0,0
14.03.2019 15:00:00 14,4 -2,2 9 5 24 13 WSW 20 60 0,0
14.03.2019 14:00:00 12,4 -2,7 9 5 21 12 SW 20 60 0,0
14.03.2019 13:00:00 10,6 -0,3 8 5 24 13 WSW 20 60 -
14.03.2019 12:00:00 8,7 0,2 8 4 18 10 SSW 20 60 0,0
14.03.2019 11:00:00 6,3 0,2 5 3 11 6 SSW 20 60 0,0
14.03.2019 10:00:00 3,6 -0,5 3 2 9 5 E 20 60 0,0
14.03.2019 09:00:00 0,2 -1,0 2 1 5 3 ENE 20 39 0,0
14.03.2019 08:00:00 -3,0 -3,6 2 1 5 3 WNW 20 0 0,0
14.03.2019 07:00:00 -2,9 -3,3 2 1 4 2 E 20 0 -
14.03.2019 06:00:00 -2,7 -3,0 1 1 4 2 E 20 0 0,0
14.03.2019 05:00:00 -2,5 -3,0 0 0 3 2 N 20 0 0,0
14.03.2019 04:00:00 -1,8 -2,5 2 1 4 2 WNW 20 0 0,0
14.03.2019 03:00:00 -1,3 -2,5 0 0 3 2 N 20 0 0,0
14.03.2019 02:00:00 -0,6 -2,5 1 1 5 3 SSW 20 0 0,0
14.03.2019 01:00:00 0,3 -2,5 0 0 14 8 N 20 0 -
14.03.2019 00:00:00 1,9 -2,2 6 3 13 7 N 20 0 0,0
13.03.2019 23:00:00 2,5 -2,0 5 3 22 12 NNE 20 0 0,0
13.03.2019 22:00:00 3,8 -2,2 11 6 22 12 NNW 20 0 0,0
13.03.2019 21:00:00 5,0 -2,5 9 5 23 13 NW 20 0 0,0
13.03.2019 20:00:00 6,3 -2,5 12 7 31 17 NW 20 0 0,0
13.03.2019 19:00:00 8,1 -2,5 13 7 36 19 NNW 20 0 -
13.03.2019 18:00:00 9,6 -3,0 14 8 34 18 NW 20 56 0,0
13.03.2019 17:00:00 10,6 -4,8 16 8 42 23 NNW 20 57 0,0
13.03.2019 16:00:00 11,4 -3,9 16 9 43 23 NNW 20 58 0,0
13.03.2019 15:00:00 - - - - - - - - - -
13.03.2019 14:00:00 10,7 -3,3 18 10 37 20 NNW 20 43 0,0
13.03.2019 13:00:00 10,5 -1,2 11 6 34 18 NW 20 59 -
13.03.2019 12:00:00 9,2 -1,2 7 4 24 13 WNW 20 60 0,0
13.03.2019 11:00:00 8,6 -0,5 4 2 17 9 W 20 60 0,0
13.03.2019 10:00:00 6,9 -1,2 6 3 18 10 WNW 20 60 0,0

tt = temperature
td = dewpoint
ff = wind speed
fx = gusts
dd = wind direction
vv = visibility
sd = sunshine duration
rr = precipitation

Next stations